Latest Weather Observations for Lombadina

IDW60801

Issued at 4:05 pm WST Wednesday 1 October 2014 (issued every 30 minutes, with the page automatically refreshed every 10 minutes)

About weather observations | Map of weather stations | Latest weather observations for WA | Other Formats
Station Details ID: 503016 Name: LOMBADINA AIRSTRIP Lat: -16.52 Lon: 122.92 Height: 42.0 m
Data from the previous 72 hours. | See also: Recent months for locations in Western Australia
Date/Time
WST
Temp
°C
App
Temp
°C
Dew
Point
Rel
Hum
%
Delta-T
°C
Wind Press
QNH
hPa
Press
MSL
hPa
Rain
since 9 am
mm
Dir
 
Spd
km/h
Gust
km/h
Spd
kts
Gust
kts
01/04:00pm 27.4 29.6 21.9 72 3.7 WNW 13 24 7 13 1010.6 1010.3 -
01/03:30pm 28.0 30.3 22.8 73 3.5 NW 15 26 8 14 1010.5 1010.2 -
01/03:00pm 28.0 30.6 22.7 73 3.6 WNW 13 22 7 12 1010.7 1010.4 -
01/02:30pm 27.8 30.1 22.1 71 3.8 NW 13 24 7 13 1010.8 1010.5 -
01/02:00pm 28.4 30.2 22.6 71 3.9 WNW 17 28 9 15 1011.1 1010.8 -
01/01:30pm 28.1 29.4 22.4 71 3.9 NW 19 26 10 14 1011.2 1010.9 -
01/01:00pm 28.8 30.7 22.7 69 4.2 NW 17 26 9 14 1011.6 1011.3 -
01/12:30pm 29.2 31.1 22.7 68 4.4 NW 17 26 9 14 1012.1 1011.8 -
01/12:00pm 28.8 30.2 21.0 62 5.2 NW 15 24 8 13 1012.7 1012.4 -
01/11:30am 30.0 31.9 22.0 62 5.4 NNW 15 24 8 13 1013.2 1012.9 0.0
01/11:00am 29.2 30.6 21.1 61 5.4 N 15 28 8 15 1013.6 1013.3 0.0
01/10:00am 29.2 31.2 21.5 63 5.2 N 13 20 7 11 1014.0 1013.7 0.0
01/09:30am 28.4 30.6 21.9 68 4.4 NW 13 22 7 12 1014.0 1013.7 0.0
01/09:00am 27.3 28.8 22.0 73 3.6 NW 17 30 9 16 1013.3 1013.0 0.0
01/08:30am 27.3 28.9 22.2 73 3.4 NW 17 24 9 13 1013.6 1013.3 0.0
01/08:00am 26.8 29.3 22.4 77 3.0 NNW 13 19 7 10 1013.6 1013.3 0.0
01/07:53am 26.9 29.9 22.7 78 2.8 NNW 11 19 6 10 1013.7 1013.5 0.0
01/07:31am 26.1 29.3 23.1 83 2.0 N 11 19 6 10 1013.7 1013.5 0.0
01/07:30am 26.1 29.1 22.6 81 2.4 N 11 19 6 10 1013.7 1013.5 0.0
01/07:00am 24.9 29.3 23.4 91 1.0 N 6 11 3 6 1013.4 1013.2 0.0
01/06:30am 23.8 27.8 22.7 93 0.7 N 6 11 3 6 1013.1 1012.9 0.0
01/06:00am 23.1 26.8 22.3 95 0.5 NNE 6 9 3 5 1013.0 1012.8 0.0
01/05:30am 22.9 26.5 22.1 95 0.5 NNE 6 9 3 5 1012.8 1012.6 0.0
01/05:00am 22.8 26.8 22.0 95 0.5 N 4 7 2 4 1012.4 1012.2 0.0
01/04:30am 23.0 26.7 22.2 95 0.5 N 6 9 3 5 1012.0 1011.8 0.0
01/04:00am 23.1 26.8 22.2 95 0.6 N 6 9 3 5 1011.8 1011.5 0.0
01/03:30am 23.0 26.7 22.3 96 0.5 NNE 6 9 3 5 1011.5 1011.2 0.0
01/03:00am 22.8 26.3 21.9 95 0.6 NNE 6 7 3 4 1011.4 1011.1 0.0
01/02:30am 21.6 24.9 20.7 95 0.6 ENE 4 6 2 3 1011.3 1011.0 0.0
01/02:00am 22.3 26.4 21.5 95 0.5 ENE 2 6 1 3 1011.2 1010.9 0.0
01/01:30am 23.0 26.3 21.9 93 0.7 N 7 11 4 6 1011.1 1010.8 0.0
01/01:00am 22.0 25.6 20.6 92 0.9 NNW 2 4 1 2 1011.3 1011.0 0.0
01/12:30am 23.6 27.5 21.8 90 1.2 N 4 7 2 4 1011.7 1011.4 0.0
01/12:00am 24.3 28.2 21.9 86 1.6 NNW 4 7 2 4 1011.9 1011.6 0.0
 
Date/Time
WST
Temp
°C
App
Temp
°C
Dew
Point
Rel
Hum
%
Delta-T
°C
Wind Press
QNH
hPa
Press
MSL
hPa
Rain
since 9 am
mm
Dir
 
Spd
km/h
Gust
km/h
Spd
kts
Gust
kts
30/11:30pm 24.7 28.2 22.2 86 1.7 WNW 7 13 4 7 1011.8 1011.5 0.0
30/11:00pm 24.9 27.9 22.0 84 1.9 WNW 9 17 5 9 1011.8 1011.5 0.0
30/10:30pm 25.0 28.2 22.3 85 1.8 WNW 9 17 5 9 1011.9 1011.6 0.0
30/10:00pm 25.1 28.1 22.6 86 1.7 WNW 11 17 6 9 1012.0 1011.8 0.0
30/09:30pm 25.3 28.0 22.2 83 2.1 NW 11 19 6 10 1012.1 1011.9 0.0
30/09:00pm 25.4 28.0 22.0 81 2.3 NW 11 19 6 10 1012.2 1012.0 0.0
30/08:30pm 25.4 28.0 22.0 81 2.3 NW 11 17 6 9 1012.3 1012.1 0.0
30/08:00pm 25.3 27.9 21.9 81 2.3 NW 11 17 6 9 1012.0 1011.8 0.0
30/07:30pm 25.2 28.7 22.2 83 2.0 NNW 7 15 4 8 1012.0 1011.8 0.0
30/07:00pm 25.3 28.9 22.0 82 2.2 NNW 6 9 3 5 1011.9 1011.6 0.0
30/06:30pm 25.7 28.7 21.9 79 2.5 NNW 9 13 5 7 1011.4 1011.1 0.0
30/06:00pm 26.0 28.0 21.6 76 2.9 NNW 13 19 7 10 1010.8 1010.5 0.0
30/05:30pm 26.7 28.3 20.7 69 4.0 NNW 13 19 7 10 1010.3 1010.0 0.0
30/05:00pm 28.0 29.6 20.0 61 5.2 NNW 11 19 6 10 1010.2 1009.9 0.0
30/04:30pm 28.8 30.1 19.3 56 6.2 NNW 11 17 6 9 1009.9 1009.6 0.0
30/04:00pm 28.5 29.3 19.1 56 6.1 NNW 13 19 7 10 1009.7 1009.4 0.0
30/03:30pm 28.8 29.3 19.3 56 6.2 NNW 15 20 8 11 1009.5 1009.2 0.0
30/03:00pm 29.2 30.3 19.6 56 6.3 NNW 13 20 7 11 1009.5 1009.2 0.0
30/02:30pm 29.0 29.0 17.3 49 7.4 NW 13 20 7 11 1009.4 1009.1 0.0
30/02:00pm 29.3 30.0 19.7 56 6.3 NW 15 24 8 13 1009.5 1009.2 0.0
30/01:30pm 29.4 29.2 18.5 52 7.0 NW 17 24 9 13 1009.5 1009.2 0.0
30/01:00pm 29.5 29.5 19.0 53 6.8 NNW 17 24 9 13 1009.7 1009.4 0.0
30/12:30pm 29.5 29.1 18.1 50 7.3 NW 17 24 9 13 1010.3 1010.0 0.0
30/12:00pm 29.5 29.7 19.4 54 6.6 NW 17 28 9 15 1010.6 1010.3 0.0
30/11:30am 29.7 30.2 20.1 56 6.3 NW 17 28 9 15 1011.0 1010.7 0.0
30/11:00am 29.9 30.7 20.6 57 6.2 NW 17 28 9 15 1011.5 1011.2 0.0
30/10:30am 30.6 32.3 21.6 58 6.1 NNW 15 22 8 12 1011.8 1011.5 0.0
30/10:00am 30.5 32.0 20.5 55 6.6 NW 13 20 7 11 1012.2 1012.0 0.0
30/09:30am 31.6 32.4 15.9 38 9.8 SW 6 11 3 6 1012.4 1012.2 0.0
30/09:00am 31.1 30.3 10.9 28 11.7 S 6 11 3 6 1012.7 1012.5 -
30/08:30am 30.9 30.8 12.2 31 11.0 SW 4 11 2 6 1012.7 1012.5 -
30/08:00am 30.2 32.1 16.7 44 8.5 N 2 6 1 3 1012.7 1012.5 -
30/07:30am 28.2 30.7 19.8 60 5.5 ENE 6 7 3 4 1012.8 1012.6 -
30/07:00am 26.3 28.8 19.9 68 4.2 NE 6 7 3 4 1012.6 1012.4 -
30/06:30am 23.9 24.8 16.5 63 4.5 ENE 7 11 4 6 1012.3 1012.1 -
30/06:00am 22.0 23.0 15.4 66 3.9 NE 4 9 2 5 1011.8 1011.5 -
30/05:30am 19.5 20.1 15.2 76 2.5 ENE 6 9 3 5 1011.8 1011.5 -
30/05:00am 18.7 19.6 16.2 85 1.5 E 6 7 3 4 1011.5 1011.2 -
30/04:30am 19.6 21.5 16.8 84 1.7 ENE 2 6 1 3 1011.0 1010.7 -
30/04:00am 19.8 21.2 17.4 86 1.5 ENE 6 9 3 5 1010.7 1010.4 -
30/03:30am 20.5 22.1 16.9 80 2.2 ENE 4 7 2 4 1010.4 1010.1 -
30/03:00am 21.0 23.2 18.4 85 1.6 SW 4 7 2 4 1010.1 1009.8 0.0
30/02:30am 20.5 22.8 17.8 84 1.7 WSW 2 6 1 3 1010.1 1009.8 -
30/02:00am 21.8 24.2 18.8 83 1.9 WSW 4 7 2 4 1010.0 1009.7 -
30/01:30am 21.3 23.2 18.6 84 1.7 WSW 6 7 3 4 1009.9 1009.6 -
30/01:00am 21.6 23.5 18.6 83 1.9 WSW 6 11 3 6 1010.1 1009.8 -
30/12:30am 22.0 24.0 18.8 82 2.0 WSW 6 9 3 5 1010.5 1010.2 -
30/12:00am 22.5 24.9 19.6 84 1.9 WSW 6 11 3 6 1010.5 1010.2 -
 
Date/Time
WST
Temp
°C
App
Temp
°C
Dew
Point
Rel
Hum
%
Delta-T
°C
Wind Press
QNH
hPa
Press
MSL
hPa
Rain
since 9 am
mm
Dir
 
Spd
km/h
Gust
km/h
Spd
kts
Gust
kts
29/11:30pm 23.1 25.3 19.6 80 2.2 WSW 7 11 4 6 1010.8 1010.5 -
29/11:00pm 22.8 25.7 20.6 87 1.4 WSW 6 9 3 5 1011.2 1010.9 -
29/10:30pm 23.5 26.7 21.3 87 1.4 W 6 9 3 5 1011.5 1011.2 -
29/10:00pm 23.3 26.7 21.7 91 1.1 W 6 7 3 4 1011.8 1011.5 -
29/09:30pm 23.6 27.1 21.9 90 1.1 W 6 7 3 4 1011.8 1011.5 -
29/09:00pm 23.9 27.3 21.7 87 1.5 W 6 7 3 4 1011.7 1011.4 -
29/08:30pm 24.3 27.8 21.8 86 1.7 W 6 7 3 4 1011.6 1011.3 -
29/08:00pm 24.5 28.0 21.8 85 1.8 W 6 7 3 4 1011.3 1011.0 -
29/07:30pm 24.8 28.3 21.8 83 2.0 W 6 9 3 5 1011.0 1010.7 -
29/07:00pm 24.8 28.4 22.0 84 1.9 W 6 7 3 4 1010.6 1010.3 -
29/06:30pm 25.4 28.9 21.8 80 2.4 WNW 6 9 3 5 1010.1 1009.8 -
29/06:00pm 25.9 29.2 21.5 76 2.9 W 6 9 3 5 1010.0 1009.7 -
29/05:30pm 26.8 29.3 21.1 71 3.8 W 9 15 5 8 1009.7 1009.4 -
29/05:00pm 28.0 30.3 20.7 64 4.8 WNW 9 15 5 8 1009.4 1009.1 -
29/04:30pm 28.8 31.0 20.5 61 5.5 WNW 9 17 5 9 1009.1 1008.8 -
29/04:00pm 29.2 31.1 19.7 56 6.2 WNW 9 19 5 10 1008.9 1008.6 -
29/03:30pm 29.4 31.4 21.6 63 5.2 WNW 13 19 7 10 1009.0 1008.7 -
29/03:00pm 29.1 30.7 20.7 60 5.6 NW 13 20 7 11 1009.1 1008.8 0.0
29/02:30pm 29.6 30.9 20.9 59 5.8 NW 15 22 8 12 1009.3 1009.0 0.0
29/02:00pm 31.2 32.0 18.1 45 8.4 NW 11 20 6 11 1009.4 1009.1 0.0
29/01:30pm 29.8 29.7 16.9 45 8.1 NW 13 22 7 12 1009.6 1009.3 0.0
29/01:00pm 30.4 29.8 15.7 41 9.1 NNW 13 22 7 12 1009.8 1009.5 0.0
29/12:30pm 30.0 30.4 18.2 49 7.6 NW 13 20 7 11 1010.2 1009.9 0.0
29/12:00pm 30.3 30.6 18.0 47 7.9 NNW 13 19 7 10 1010.6 1010.3 0.0
29/11:30am 31.1 32.0 17.6 44 8.6 NW 9 17 5 9 1010.9 1010.6 0.0
29/11:00am 31.2 32.3 17.9 45 8.5 NW 9 15 5 8 1011.2 1010.9 0.0
29/10:30am 30.1 31.2 18.9 51 7.3 NW 11 15 6 8 1011.7 1011.4 0.0
29/10:00am 32.2 33.5 17.1 40 9.6 W 6 11 3 6 1012.0 1011.8 0.0
29/09:30am 31.1 30.7 12.4 31 11.1 S 6 9 3 5 1012.4 1012.2 0.0
29/09:00am 30.5 31.2 14.6 38 9.7 SSE 4 11 2 6 1012.6 1012.4 0.0
29/08:30am 29.2 29.8 15.8 44 8.3 E 7 11 4 6 1012.8 1012.6 0.0
29/08:00am 29.0 29.5 14.9 42 8.6 E 6 11 3 6 1012.8 1012.6 0.0
29/07:30am 27.2 28.6 16.4 51 6.7 ENE 4 11 2 6 1012.5 1012.3 0.0
29/07:00am 24.9 26.8 17.6 64 4.6 SW 4 7 2 4 1012.1 1011.9 0.0
29/06:30am 23.7 25.1 17.7 69 3.7 SW 7 13 4 7 1011.5 1011.2 0.0
29/06:00am 22.6 24.4 18.4 77 2.6 SSW 6 11 3 6 1011.2 1010.9 0.0
29/05:30am 22.7 24.6 18.6 77 2.6 SW 6 11 3 6 1010.8 1010.5 0.0
29/05:00am 23.2 24.7 18.9 77 2.7 SW 9 15 5 8 1010.5 1010.2 0.0
29/04:30am 23.4 24.6 19.0 76 2.8 SW 11 19 6 10 1010.1 1009.8 0.0
29/04:00am 23.2 25.4 20.3 84 1.9 SW 9 19 5 10 1009.9 1009.6 0.0
29/03:30am 22.9 25.9 21.3 91 1.1 SW 7 15 4 8 1009.6 1009.3 0.0
29/03:00am 23.3 26.2 21.7 91 1.1 WSW 9 17 5 9 1009.4 1009.1 0.0
29/02:30am 23.5 26.2 22.1 92 0.9 SW 11 20 6 11 1009.7 1009.4 0.0
29/02:00am 23.5 26.7 22.3 93 0.8 SW 9 17 5 9 1009.8 1009.5 0.0
29/01:30am 23.5 26.8 22.6 95 0.6 WSW 9 17 5 9 1009.8 1009.5 0.0
29/01:00am 23.3 26.2 22.4 95 0.6 WSW 11 19 6 10 1010.2 1009.9 0.0
29/12:30am 23.1 26.3 22.3 95 0.5 WSW 9 15 5 8 1010.6 1010.3 0.0
29/12:00am 22.9 26.4 22.1 95 0.5 WSW 7 13 4 7 1011.0 1010.7 0.0
 
Date/Time
WST
Temp
°C
App
Temp
°C
Dew
Point
Rel
Hum
%
Delta-T
°C
Wind Press
QNH
hPa
Press
MSL
hPa
Rain
since 9 am
mm
Dir
 
Spd
km/h
Gust
km/h
Spd
kts
Gust
kts
28/11:30pm 22.9 26.2 21.8 93 0.7 WSW 7 13 4 7 1011.3 1011.0 0.0
28/11:00pm 22.8 26.0 21.6 93 0.8 WSW 7 13 4 7 1011.9 1011.6 0.0
28/10:30pm 23.1 26.4 21.5 91 1.1 WSW 6 11 3 6 1012.1 1011.9 0.0
28/10:00pm 23.4 26.6 21.7 90 1.1 WSW 7 13 4 7 1012.2 1012.0 0.0
28/09:30pm 23.6 26.8 21.6 88 1.3 WSW 7 15 4 8 1012.3 1012.1 0.0
28/09:00pm 23.7 26.9 21.6 88 1.4 WSW 7 11 4 6 1012.2 1012.0 0.0
28/08:30pm 23.9 27.3 21.6 87 1.5 W 6 9 3 5 1012.0 1011.8 0.0
28/08:00pm 24.3 27.5 21.7 85 1.7 W 7 13 4 7 1011.8 1011.5 0.0
28/07:30pm 24.4 27.7 21.9 86 1.7 W 7 11 4 6 1011.6 1011.3 0.0
28/07:00pm 24.6 27.7 21.4 82 2.1 W 7 15 4 8 1011.4 1011.1 0.0
28/06:30pm 24.7 27.6 20.6 78 2.7 W 6 9 3 5 1011.2 1010.9 0.0
28/06:00pm 25.4 27.4 18.7 66 4.3 W 6 9 3 5 1011.0 1010.7 0.0
28/05:30pm 26.5 28.1 18.2 60 5.3 W 7 15 4 8 1010.9 1010.6 0.0
28/05:00pm 27.7 28.6 16.5 50 7.0 W 7 13 4 7 1010.8 1010.5 0.0
28/04:30pm 28.4 28.7 16.0 47 7.7 WNW 9 15 5 8 1010.8 1010.5 0.0

Other Formats:

Comma delimited format used in spreadsheet applications
http://www.bom.gov.au/fwo/IDW60801/IDW60801.99206.axf

JavaScript Object Notation format (JSON) in row-major order
http://www.bom.gov.au/fwo/IDW60801/IDW60801.99206.json